sensor_id;sensor_type;location;lat;lon;timestamp;P1;durP1;ratioP1;P2;durP2;ratioP2
16153;SDS011;8182;55.648;13.208;2023-06-10T00:00:18;2.20;;;0.70;;
16153;SDS011;8182;55.648;13.208;2023-06-10T00:02:46;3.63;;;0.80;;
16153;SDS011;8182;55.648;13.208;2023-06-10T00:05:17;1.40;;;1.00;;
16153;SDS011;8182;55.648;13.208;2023-06-10T00:08:00;2.07;;;0.80;;
16153;SDS011;8182;55.648;13.208;2023-06-10T00:10:37;1.03;;;0.70;;
16153;SDS011;8182;55.648;13.208;2023-06-10T00:13:05;0.83;;;0.70;;
16153;SDS011;8182;55.648;13.208;2023-06-10T00:15:37;0.73;;;0.60;;
16153;SDS011;8182;55.648;13.208;2023-06-10T00:18:04;1.23;;;0.73;;
16153;SDS011;8182;55.648;13.208;2023-06-10T00:20:35;1.60;;;0.90;;
16153;SDS011;8182;55.648;13.208;2023-06-10T00:23:06;1.20;;;0.80;;
16153;SDS011;8182;55.648;13.208;2023-06-10T00:25:36;3.93;;;1.03;;
16153;SDS011;8182;55.648;13.208;2023-06-10T00:28:03;2.37;;;1.17;;
16153;SDS011;8182;55.648;13.208;2023-06-10T00:30:34;1.77;;;0.87;;
16153;SDS011;8182;55.648;13.208;2023-06-10T00:33:08;1.37;;;0.87;;
16153;SDS011;8182;55.648;13.208;2023-06-10T00:35:42;1.20;;;0.60;;
16153;SDS011;8182;55.648;13.208;2023-06-10T00:38:15;0.97;;;0.70;;
16153;SDS011;8182;55.648;13.208;2023-06-10T00:40:44;1.07;;;0.70;;
16153;SDS011;8182;55.648;13.208;2023-06-10T00:43:15;0.73;;;0.60;;
16153;SDS011;8182;55.648;13.208;2023-06-10T00:45:42;2.07;;;1.17;;
16153;SDS011;8182;55.648;13.208;2023-06-10T00:48:09;1.40;;;0.70;;
16153;SDS011;8182;55.648;13.208;2023-06-10T00:50:37;2.20;;;0.70;;
16153;SDS011;8182;55.648;13.208;2023-06-10T00:53:15;0.70;;;0.70;;
16153;SDS011;8182;55.648;13.208;2023-06-10T00:55:47;0.53;;;0.50;;
16153;SDS011;8182;55.648;13.208;2023-06-10T00:58:16;0.90;;;0.70;;
16153;SDS011;8182;55.648;13.208;2023-06-10T01:00:53;1.73;;;0.70;;
16153;SDS011;8182;55.648;13.208;2023-06-10T01:03:35;0.90;;;0.70;;
16153;SDS011;8182;55.648;13.208;2023-06-10T01:06:07;1.77;;;1.13;;
16153;SDS011;8182;55.648;13.208;2023-06-10T01:08:45;1.30;;;0.60;;
16153;SDS011;8182;55.648;13.208;2023-06-10T01:11:36;1.63;;;0.90;;
16153;SDS011;8182;55.648;13.208;2023-06-10T01:14:19;1.10;;;0.63;;
16153;SDS011;8182;55.648;13.208;2023-06-10T01:16:51;1.27;;;0.83;;
16153;SDS011;8182;55.648;13.208;2023-06-10T01:19:19;1.40;;;0.70;;
16153;SDS011;8182;55.648;13.208;2023-06-10T01:21:50;2.63;;;0.67;;
16153;SDS011;8182;55.648;13.208;2023-06-10T01:24:20;2.30;;;0.60;;
16153;SDS011;8182;55.648;13.208;2023-06-10T01:26:48;2.60;;;0.60;;
16153;SDS011;8182;55.648;13.208;2023-06-10T01:29:18;1.03;;;0.80;;
16153;SDS011;8182;55.648;13.208;2023-06-10T01:31:48;1.03;;;0.90;;
16153;SDS011;8182;55.648;13.208;2023-06-10T01:34:19;1.10;;;0.70;;
16153;SDS011;8182;55.648;13.208;2023-06-10T01:36:48;1.80;;;0.60;;
16153;SDS011;8182;55.648;13.208;2023-06-10T01:39:20;1.63;;;1.20;;
16153;SDS011;8182;55.648;13.208;2023-06-10T01:41:51;1.27;;;0.70;;
16153;SDS011;8182;55.648;13.208;2023-06-10T01:44:19;0.57;;;0.50;;
16153;SDS011;8182;55.648;13.208;2023-06-10T01:46:47;2.10;;;0.83;;
16153;SDS011;8182;55.648;13.208;2023-06-10T01:49:14;1.33;;;0.80;;
16153;SDS011;8182;55.648;13.208;2023-06-10T01:51:42;1.00;;;0.80;;
16153;SDS011;8182;55.648;13.208;2023-06-10T01:54:10;3.00;;;0.70;;
16153;SDS011;8182;55.648;13.208;2023-06-10T01:56:37;2.47;;;0.77;;
16153;SDS011;8182;55.648;13.208;2023-06-10T01:59:04;2.33;;;0.80;;
16153;SDS011;8182;55.648;13.208;2023-06-10T02:01:32;2.33;;;0.60;;
16153;SDS011;8182;55.648;13.208;2023-06-10T02:04:00;1.00;;;0.70;;
16153;SDS011;8182;55.648;13.208;2023-06-10T02:06:28;1.13;;;0.60;;
16153;SDS011;8182;55.648;13.208;2023-06-10T02:08:55;0.80;;;0.60;;
16153;SDS011;8182;55.648;13.208;2023-06-10T02:11:24;2.57;;;0.73;;
16153;SDS011;8182;55.648;13.208;2023-06-10T02:13:58;1.27;;;0.80;;
16153;SDS011;8182;55.648;13.208;2023-06-10T02:16:25;1.57;;;0.80;;
16153;SDS011;8182;55.648;13.208;2023-06-10T02:18:52;2.47;;;0.90;;
16153;SDS011;8182;55.648;13.208;2023-06-10T02:21:19;1.87;;;0.83;;
16153;SDS011;8182;55.648;13.208;2023-06-10T02:23:47;1.10;;;0.80;;
16153;SDS011;8182;55.648;13.208;2023-06-10T02:26:14;2.53;;;0.80;;
16153;SDS011;8182;55.648;13.208;2023-06-10T02:28:43;0.80;;;0.70;;
16153;SDS011;8182;55.648;13.208;2023-06-10T02:31:11;1.43;;;0.80;;
16153;SDS011;8182;55.648;13.208;2023-06-10T02:33:38;0.87;;;0.70;;
16153;SDS011;8182;55.648;13.208;2023-06-10T02:36:07;1.03;;;0.70;;
16153;SDS011;8182;55.648;13.208;2023-06-10T02:38:38;2.97;;;0.70;;
16153;SDS011;8182;55.648;13.208;2023-06-10T02:41:06;2.13;;;0.67;;
16153;SDS011;8182;55.648;13.208;2023-06-10T02:43:34;1.57;;;0.80;;
16153;SDS011;8182;55.648;13.208;2023-06-10T02:46:04;3.13;;;0.90;;
16153;SDS011;8182;55.648;13.208;2023-06-10T02:48:41;3.83;;;0.90;;
16153;SDS011;8182;55.648;13.208;2023-06-10T02:51:10;1.93;;;0.90;;
16153;SDS011;8182;55.648;13.208;2023-06-10T02:53:37;0.80;;;0.70;;
16153;SDS011;8182;55.648;13.208;2023-06-10T02:56:05;0.90;;;0.80;;
16153;SDS011;8182;55.648;13.208;2023-06-10T02:58:33;3.83;;;0.90;;
16153;SDS011;8182;55.648;13.208;2023-06-10T03:01:00;1.07;;;0.80;;
16153;SDS011;8182;55.648;13.208;2023-06-10T03:03:29;1.50;;;0.73;;
16153;SDS011;8182;55.648;13.208;2023-06-10T03:05:58;2.30;;;0.90;;
16153;SDS011;8182;55.648;13.208;2023-06-10T03:08:26;1.23;;;0.70;;
16153;SDS011;8182;55.648;13.208;2023-06-10T03:10:53;1.53;;;0.80;;
16153;SDS011;8182;55.648;13.208;2023-06-10T03:13:20;1.10;;;0.80;;
16153;SDS011;8182;55.648;13.208;2023-06-10T03:15:48;0.97;;;0.70;;
16153;SDS011;8182;55.648;13.208;2023-06-10T03:18:17;5.17;;;1.00;;
16153;SDS011;8182;55.648;13.208;2023-06-10T03:20:47;2.13;;;0.90;;
16153;SDS011;8182;55.648;13.208;2023-06-10T03:23:16;1.00;;;0.90;;
16153;SDS011;8182;55.648;13.208;2023-06-10T03:25:44;2.23;;;0.90;;
16153;SDS011;8182;55.648;13.208;2023-06-10T03:28:12;2.37;;;0.90;;
16153;SDS011;8182;55.648;13.208;2023-06-10T03:30:39;2.37;;;1.00;;
16153;SDS011;8182;55.648;13.208;2023-06-10T03:33:06;2.53;;;0.90;;
16153;SDS011;8182;55.648;13.208;2023-06-10T03:35:33;3.13;;;0.90;;
16153;SDS011;8182;55.648;13.208;2023-06-10T03:38:02;2.30;;;0.80;;
16153;SDS011;8182;55.648;13.208;2023-06-10T03:40:35;1.47;;;0.83;;
16153;SDS011;8182;55.648;13.208;2023-06-10T03:43:03;0.90;;;0.80;;
16153;SDS011;8182;55.648;13.208;2023-06-10T03:45:31;2.13;;;0.80;;
16153;SDS011;8182;55.648;13.208;2023-06-10T03:47:59;6.03;;;0.80;;
16153;SDS011;8182;55.648;13.208;2023-06-10T03:50:28;2.17;;;0.83;;
16153;SDS011;8182;55.648;13.208;2023-06-10T03:52:58;1.50;;;0.80;;
16153;SDS011;8182;55.648;13.208;2023-06-10T03:55:27;1.30;;;0.80;;
16153;SDS011;8182;55.648;13.208;2023-06-10T03:57:54;2.97;;;0.80;;
16153;SDS011;8182;55.648;13.208;2023-06-10T04:00:21;2.97;;;0.87;;
16153;SDS011;8182;55.648;13.208;2023-06-10T04:02:49;2.17;;;1.00;;
16153;SDS011;8182;55.648;13.208;2023-06-10T04:05:17;1.10;;;0.90;;
16153;SDS011;8182;55.648;13.208;2023-06-10T04:07:47;2.67;;;0.80;;
16153;SDS011;8182;55.648;13.208;2023-06-10T04:10:15;2.60;;;0.80;;
16153;SDS011;8182;55.648;13.208;2023-06-10T04:12:44;1.27;;;0.80;;
16153;SDS011;8182;55.648;13.208;2023-06-10T04:15:11;2.00;;;1.00;;
16153;SDS011;8182;55.648;13.208;2023-06-10T04:17:39;1.50;;;0.70;;
16153;SDS011;8182;55.648;13.208;2023-06-10T04:20:07;3.00;;;0.90;;
16153;SDS011;8182;55.648;13.208;2023-06-10T04:22:35;3.20;;;1.23;;
16153;SDS011;8182;55.648;13.208;2023-06-10T04:25:13;1.50;;;0.80;;
16153;SDS011;8182;55.648;13.208;2023-06-10T04:27:41;1.73;;;0.80;;
16153;SDS011;8182;55.648;13.208;2023-06-10T04:30:11;1.67;;;0.80;;
16153;SDS011;8182;55.648;13.208;2023-06-10T04:32:39;2.40;;;0.90;;
16153;SDS011;8182;55.648;13.208;2023-06-10T04:35:06;1.37;;;1.00;;
16153;SDS011;8182;55.648;13.208;2023-06-10T04:37:35;1.40;;;0.83;;
16153;SDS011;8182;55.648;13.208;2023-06-10T04:40:02;3.63;;;1.00;;
16153;SDS011;8182;55.648;13.208;2023-06-10T04:42:31;1.37;;;1.00;;
16153;SDS011;8182;55.648;13.208;2023-06-10T04:45:01;2.33;;;1.07;;
16153;SDS011;8182;55.648;13.208;2023-06-10T04:47:29;1.60;;;0.90;;
16153;SDS011;8182;55.648;13.208;2023-06-10T04:49:58;1.83;;;1.10;;
16153;SDS011;8182;55.648;13.208;2023-06-10T04:52:32;1.20;;;0.90;;
16153;SDS011;8182;55.648;13.208;2023-06-10T04:55:00;1.97;;;1.23;;
16153;SDS011;8182;55.648;13.208;2023-06-10T04:57:28;2.97;;;0.90;;
16153;SDS011;8182;55.648;13.208;2023-06-10T04:59:55;1.90;;;0.87;;
16153;SDS011;8182;55.648;13.208;2023-06-10T05:02:24;2.50;;;1.10;;
16153;SDS011;8182;55.648;13.208;2023-06-10T05:04:52;2.20;;;0.80;;
16153;SDS011;8182;55.648;13.208;2023-06-10T05:07:20;2.27;;;1.23;;
16153;SDS011;8182;55.648;13.208;2023-06-10T05:09:47;3.73;;;1.60;;
16153;SDS011;8182;55.648;13.208;2023-06-10T05:12:14;2.37;;;1.00;;
16153;SDS011;8182;55.648;13.208;2023-06-10T05:14:41;2.27;;;1.00;;
16153;SDS011;8182;55.648;13.208;2023-06-10T05:17:10;2.77;;;1.10;;
16153;SDS011;8182;55.648;13.208;2023-06-10T05:19:39;2.40;;;1.10;;
16153;SDS011;8182;55.648;13.208;2023-06-10T05:22:08;3.27;;;0.90;;
16153;SDS011;8182;55.648;13.208;2023-06-10T05:24:35;3.83;;;1.10;;
16153;SDS011;8182;55.648;13.208;2023-06-10T05:27:03;2.17;;;0.80;;
16153;SDS011;8182;55.648;13.208;2023-06-10T05:29:32;3.87;;;1.20;;
16153;SDS011;8182;55.648;13.208;2023-06-10T05:32:00;1.50;;;0.90;;
16153;SDS011;8182;55.648;13.208;2023-06-10T05:34:28;1.37;;;0.80;;
16153;SDS011;8182;55.648;13.208;2023-06-10T05:36:57;3.60;;;0.97;;
16153;SDS011;8182;55.648;13.208;2023-06-10T05:39:30;5.47;;;0.93;;
16153;SDS011;8182;55.648;13.208;2023-06-10T05:42:03;2.80;;;1.00;;
16153;SDS011;8182;55.648;13.208;2023-06-10T05:44:34;6.03;;;1.20;;
16153;SDS011;8182;55.648;13.208;2023-06-10T05:47:03;2.87;;;0.90;;
16153;SDS011;8182;55.648;13.208;2023-06-10T05:49:30;1.77;;;0.97;;
16153;SDS011;8182;55.648;13.208;2023-06-10T05:52:06;1.40;;;0.80;;
16153;SDS011;8182;55.648;13.208;2023-06-10T05:54:43;4.77;;;0.90;;
16153;SDS011;8182;55.648;13.208;2023-06-10T05:57:13;3.33;;;0.83;;
16153;SDS011;8182;55.648;13.208;2023-06-10T05:59:43;1.90;;;1.20;;
16153;SDS011;8182;55.648;13.208;2023-06-10T06:02:11;3.00;;;1.00;;
16153;SDS011;8182;55.648;13.208;2023-06-10T06:04:40;1.13;;;0.90;;
16153;SDS011;8182;55.648;13.208;2023-06-10T06:07:09;3.63;;;1.10;;
16153;SDS011;8182;55.648;13.208;2023-06-10T06:09:36;2.13;;;1.00;;
16153;SDS011;8182;55.648;13.208;2023-06-10T06:12:04;2.23;;;0.90;;
16153;SDS011;8182;55.648;13.208;2023-06-10T06:14:36;1.47;;;0.77;;
16153;SDS011;8182;55.648;13.208;2023-06-10T06:17:05;3.10;;;0.83;;
16153;SDS011;8182;55.648;13.208;2023-06-10T06:19:33;3.13;;;0.90;;
16153;SDS011;8182;55.648;13.208;2023-06-10T06:22:01;4.10;;;1.23;;
16153;SDS011;8182;55.648;13.208;2023-06-10T06:24:29;2.30;;;0.90;;
16153;SDS011;8182;55.648;13.208;2023-06-10T06:26:57;4.50;;;1.00;;
16153;SDS011;8182;55.648;13.208;2023-06-10T06:29:24;1.37;;;0.80;;
16153;SDS011;8182;55.648;13.208;2023-06-10T06:31:52;1.80;;;0.80;;
16153;SDS011;8182;55.648;13.208;2023-06-10T06:34:19;3.30;;;0.80;;
16153;SDS011;8182;55.648;13.208;2023-06-10T06:36:48;4.43;;;1.10;;
16153;SDS011;8182;55.648;13.208;2023-06-10T06:39:16;1.93;;;0.83;;
16153;SDS011;8182;55.648;13.208;2023-06-10T06:41:44;5.53;;;1.23;;
16153;SDS011;8182;55.648;13.208;2023-06-10T06:44:12;2.13;;;0.93;;
16153;SDS011;8182;55.648;13.208;2023-06-10T06:46:39;4.83;;;0.90;;
16153;SDS011;8182;55.648;13.208;2023-06-10T06:49:08;1.37;;;1.03;;
16153;SDS011;8182;55.648;13.208;2023-06-10T06:54:06;2.33;;;0.90;;
16153;SDS011;8182;55.648;13.208;2023-06-10T06:56:34;2.03;;;0.90;;
16153;SDS011;8182;55.648;13.208;2023-06-10T06:59:03;4.93;;;1.03;;
16153;SDS011;8182;55.648;13.208;2023-06-10T07:01:33;2.37;;;1.00;;
16153;SDS011;8182;55.648;13.208;2023-06-10T07:04:00;5.63;;;1.17;;
16153;SDS011;8182;55.648;13.208;2023-06-10T07:06:28;4.13;;;0.90;;
16153;SDS011;8182;55.648;13.208;2023-06-10T07:08:55;8.50;;;1.17;;
16153;SDS011;8182;55.648;13.208;2023-06-10T07:11:22;2.13;;;1.10;;
16153;SDS011;8182;55.648;13.208;2023-06-10T07:13:49;2.23;;;1.10;;
16153;SDS011;8182;55.648;13.208;2023-06-10T07:16:18;5.37;;;1.20;;
16153;SDS011;8182;55.648;13.208;2023-06-10T07:18:46;4.93;;;1.07;;
16153;SDS011;8182;55.648;13.208;2023-06-10T07:21:13;4.17;;;1.00;;
16153;SDS011;8182;55.648;13.208;2023-06-10T07:23:41;3.00;;;1.10;;
16153;SDS011;8182;55.648;13.208;2023-06-10T07:26:08;3.83;;;1.10;;
16153;SDS011;8182;55.648;13.208;2023-06-10T07:28:42;4.80;;;1.00;;
16153;SDS011;8182;55.648;13.208;2023-06-10T07:31:09;8.07;;;1.40;;
16153;SDS011;8182;55.648;13.208;2023-06-10T07:33:38;2.50;;;0.80;;
16153;SDS011;8182;55.648;13.208;2023-06-10T07:36:06;4.60;;;1.00;;
16153;SDS011;8182;55.648;13.208;2023-06-10T07:38:36;3.30;;;0.83;;
16153;SDS011;8182;55.648;13.208;2023-06-10T07:41:03;4.10;;;1.03;;
16153;SDS011;8182;55.648;13.208;2023-06-10T07:43:33;1.87;;;0.70;;
16153;SDS011;8182;55.648;13.208;2023-06-10T07:46:07;2.27;;;0.80;;
16153;SDS011;8182;55.648;13.208;2023-06-10T07:48:35;1.47;;;0.90;;
16153;SDS011;8182;55.648;13.208;2023-06-10T07:51:04;1.43;;;0.80;;
16153;SDS011;8182;55.648;13.208;2023-06-10T07:53:31;1.17;;;0.80;;
16153;SDS011;8182;55.648;13.208;2023-06-10T07:55:59;1.90;;;1.07;;
16153;SDS011;8182;55.648;13.208;2023-06-10T07:58:30;3.87;;;1.00;;
16153;SDS011;8182;55.648;13.208;2023-06-10T08:00:57;1.83;;;0.90;;
16153;SDS011;8182;55.648;13.208;2023-06-10T08:03:25;2.77;;;0.90;;
16153;SDS011;8182;55.648;13.208;2023-06-10T08:05:53;5.47;;;0.80;;
16153;SDS011;8182;55.648;13.208;2023-06-10T08:08:21;2.63;;;0.90;;
16153;SDS011;8182;55.648;13.208;2023-06-10T08:10:49;2.47;;;1.20;;
16153;SDS011;8182;55.648;13.208;2023-06-10T08:13:17;3.83;;;1.20;;
16153;SDS011;8182;55.648;13.208;2023-06-10T08:15:44;4.27;;;1.10;;
16153;SDS011;8182;55.648;13.208;2023-06-10T08:18:13;1.53;;;0.90;;
16153;SDS011;8182;55.648;13.208;2023-06-10T08:20:40;5.33;;;1.03;;
16153;SDS011;8182;55.648;13.208;2023-06-10T08:23:07;2.10;;;1.30;;
16153;SDS011;8182;55.648;13.208;2023-06-10T08:25:36;6.23;;;1.33;;
16153;SDS011;8182;55.648;13.208;2023-06-10T08:28:04;1.23;;;0.83;;
16153;SDS011;8182;55.648;13.208;2023-06-10T08:30:31;2.40;;;0.90;;
16153;SDS011;8182;55.648;13.208;2023-06-10T08:32:59;1.87;;;0.87;;
16153;SDS011;8182;55.648;13.208;2023-06-10T08:35:26;4.80;;;1.10;;
16153;SDS011;8182;55.648;13.208;2023-06-10T08:37:57;1.80;;;1.10;;
16153;SDS011;8182;55.648;13.208;2023-06-10T08:40:24;7.10;;;1.13;;
16153;SDS011;8182;55.648;13.208;2023-06-10T08:43:03;2.67;;;0.97;;
16153;SDS011;8182;55.648;13.208;2023-06-10T08:45:34;4.20;;;1.23;;
16153;SDS011;8182;55.648;13.208;2023-06-10T08:48:03;4.07;;;1.10;;
16153;SDS011;8182;55.648;13.208;2023-06-10T08:50:33;3.97;;;1.10;;
16153;SDS011;8182;55.648;13.208;2023-06-10T08:53:09;5.13;;;1.13;;
16153;SDS011;8182;55.648;13.208;2023-06-10T08:55:46;3.73;;;1.20;;
16153;SDS011;8182;55.648;13.208;2023-06-10T08:58:18;6.93;;;1.27;;
16153;SDS011;8182;55.648;13.208;2023-06-10T09:00:47;3.43;;;1.37;;
16153;SDS011;8182;55.648;13.208;2023-06-10T09:03:14;4.07;;;1.30;;
16153;SDS011;8182;55.648;13.208;2023-06-10T09:05:42;3.03;;;1.30;;
16153;SDS011;8182;55.648;13.208;2023-06-10T09:08:10;5.23;;;1.20;;
16153;SDS011;8182;55.648;13.208;2023-06-10T09:10:38;7.57;;;1.63;;
16153;SDS011;8182;55.648;13.208;2023-06-10T09:13:06;3.77;;;1.30;;
16153;SDS011;8182;55.648;13.208;2023-06-10T09:15:35;7.43;;;1.50;;
16153;SDS011;8182;55.648;13.208;2023-06-10T09:18:05;4.43;;;1.30;;
16153;SDS011;8182;55.648;13.208;2023-06-10T09:20:32;8.93;;;1.60;;
16153;SDS011;8182;55.648;13.208;2023-06-10T09:22:59;6.27;;;1.40;;
16153;SDS011;8182;55.648;13.208;2023-06-10T09:28:22;2.40;;;1.20;;
16153;SDS011;8182;55.648;13.208;2023-06-10T09:31:02;7.10;;;1.50;;
16153;SDS011;8182;55.648;13.208;2023-06-10T09:33:31;2.97;;;1.27;;
16153;SDS011;8182;55.648;13.208;2023-06-10T09:35:59;4.47;;;1.30;;
16153;SDS011;8182;55.648;13.208;2023-06-10T09:38:34;3.97;;;1.30;;
16153;SDS011;8182;55.648;13.208;2023-06-10T09:41:02;7.77;;;1.53;;
16153;SDS011;8182;55.648;13.208;2023-06-10T09:46:19;4.47;;;1.17;;
16153;SDS011;8182;55.648;13.208;2023-06-10T09:48:49;3.03;;;1.20;;
16153;SDS011;8182;55.648;13.208;2023-06-10T09:51:16;4.50;;;1.20;;
16153;SDS011;8182;55.648;13.208;2023-06-10T09:53:47;3.33;;;1.03;;
16153;SDS011;8182;55.648;13.208;2023-06-10T09:56:15;3.23;;;1.10;;
16153;SDS011;8182;55.648;13.208;2023-06-10T09:58:42;5.80;;;1.30;;
16153;SDS011;8182;55.648;13.208;2023-06-10T10:01:12;3.10;;;0.93;;
16153;SDS011;8182;55.648;13.208;2023-06-10T10:03:45;4.10;;;1.20;;
16153;SDS011;8182;55.648;13.208;2023-06-10T10:06:13;2.33;;;1.10;;
16153;SDS011;8182;55.648;13.208;2023-06-10T10:08:41;2.23;;;1.33;;
16153;SDS011;8182;55.648;13.208;2023-06-10T10:11:08;2.00;;;1.40;;
16153;SDS011;8182;55.648;13.208;2023-06-10T10:13:36;2.70;;;1.33;;
16153;SDS011;8182;55.648;13.208;2023-06-10T10:16:09;5.07;;;1.77;;
16153;SDS011;8182;55.648;13.208;2023-06-10T10:18:41;3.97;;;1.30;;
16153;SDS011;8182;55.648;13.208;2023-06-10T10:21:13;4.77;;;1.63;;
16153;SDS011;8182;55.648;13.208;2023-06-10T10:23:43;5.07;;;1.20;;
16153;SDS011;8182;55.648;13.208;2023-06-10T10:26:16;4.87;;;1.53;;
16153;SDS011;8182;55.648;13.208;2023-06-10T10:28:45;4.30;;;1.50;;
16153;SDS011;8182;55.648;13.208;2023-06-10T10:31:18;4.07;;;1.20;;
16153;SDS011;8182;55.648;13.208;2023-06-10T10:33:51;2.83;;;1.30;;
16153;SDS011;8182;55.648;13.208;2023-06-10T10:36:25;2.67;;;1.40;;
16153;SDS011;8182;55.648;13.208;2023-06-10T10:38:52;4.50;;;1.40;;
16153;SDS011;8182;55.648;13.208;2023-06-10T10:41:20;6.63;;;1.57;;
16153;SDS011;8182;55.648;13.208;2023-06-10T10:43:54;3.47;;;1.47;;
16153;SDS011;8182;55.648;13.208;2023-06-10T10:46:22;4.83;;;1.30;;
16153;SDS011;8182;55.648;13.208;2023-06-10T10:48:53;6.17;;;1.60;;
16153;SDS011;8182;55.648;13.208;2023-06-10T10:51:23;5.17;;;2.10;;
16153;SDS011;8182;55.648;13.208;2023-06-10T10:59:52;7.73;;;1.80;;
16153;SDS011;8182;55.648;13.208;2023-06-10T11:02:40;5.20;;;1.67;;
16153;SDS011;8182;55.648;13.208;2023-06-10T11:05:30;4.47;;;1.63;;
16153;SDS011;8182;55.648;13.208;2023-06-10T11:08:12;6.07;;;1.83;;
16153;SDS011;8182;55.648;13.208;2023-06-10T11:10:40;7.07;;;1.90;;
16153;SDS011;8182;55.648;13.208;2023-06-10T11:13:08;5.97;;;1.50;;
16153;SDS011;8182;55.648;13.208;2023-06-10T11:15:40;5.27;;;1.87;;
16153;SDS011;8182;55.648;13.208;2023-06-10T11:18:13;7.33;;;1.80;;
16153;SDS011;8182;55.648;13.208;2023-06-10T11:20:50;2.87;;;1.83;;
16153;SDS011;8182;55.648;13.208;2023-06-10T11:23:39;6.80;;;1.77;;
16153;SDS011;8182;55.648;13.208;2023-06-10T11:26:21;2.63;;;1.90;;
16153;SDS011;8182;55.648;13.208;2023-06-10T11:29:01;4.80;;;1.67;;
16153;SDS011;8182;55.648;13.208;2023-06-10T11:31:38;4.13;;;2.10;;
16153;SDS011;8182;55.648;13.208;2023-06-10T11:34:13;4.70;;;1.80;;
16153;SDS011;8182;55.648;13.208;2023-06-10T11:36:53;7.53;;;2.10;;
16153;SDS011;8182;55.648;13.208;2023-06-10T11:39:25;6.37;;;1.87;;
16153;SDS011;8182;55.648;13.208;2023-06-10T11:41:52;5.27;;;1.90;;
16153;SDS011;8182;55.648;13.208;2023-06-10T11:44:21;5.67;;;2.27;;
16153;SDS011;8182;55.648;13.208;2023-06-10T11:47:05;4.03;;;1.90;;
16153;SDS011;8182;55.648;13.208;2023-06-10T11:49:37;5.03;;;1.93;;
16153;SDS011;8182;55.648;13.208;2023-06-10T11:52:06;5.00;;;2.00;;
16153;SDS011;8182;55.648;13.208;2023-06-10T11:54:33;5.40;;;1.73;;
16153;SDS011;8182;55.648;13.208;2023-06-10T11:57:04;7.13;;;1.80;;
16153;SDS011;8182;55.648;13.208;2023-06-10T11:59:33;5.37;;;1.83;;
16153;SDS011;8182;55.648;13.208;2023-06-10T12:02:00;6.33;;;1.77;;
16153;SDS011;8182;55.648;13.208;2023-06-10T12:04:43;6.60;;;1.80;;
16153;SDS011;8182;55.648;13.208;2023-06-10T12:07:18;4.03;;;1.47;;
16153;SDS011;8182;55.648;13.208;2023-06-10T12:09:46;5.63;;;1.80;;
16153;SDS011;8182;55.648;13.208;2023-06-10T12:12:13;5.63;;;1.80;;
16153;SDS011;8182;55.648;13.208;2023-06-10T12:14:52;6.93;;;1.90;;
16153;SDS011;8182;55.648;13.208;2023-06-10T12:17:24;5.57;;;1.80;;
16153;SDS011;8182;55.648;13.208;2023-06-10T12:20:03;4.77;;;1.60;;
16153;SDS011;8182;55.648;13.208;2023-06-10T12:22:41;4.60;;;1.70;;
16153;SDS011;8182;55.648;13.208;2023-06-10T12:25:10;4.73;;;1.60;;
16153;SDS011;8182;55.648;13.208;2023-06-10T12:27:40;5.53;;;1.70;;
16153;SDS011;8182;55.648;13.208;2023-06-10T12:30:58;4.70;;;1.70;;
16153;SDS011;8182;55.648;13.208;2023-06-10T12:33:15;5.10;;;1.80;;
16153;SDS011;8182;55.648;13.208;2023-06-10T12:35:46;3.63;;;1.60;;
16153;SDS011;8182;55.648;13.208;2023-06-10T12:38:17;4.10;;;1.70;;
16153;SDS011;8182;55.648;13.208;2023-06-10T12:40:50;5.53;;;1.73;;
16153;SDS011;8182;55.648;13.208;2023-06-10T12:43:20;3.00;;;1.47;;
16153;SDS011;8182;55.648;13.208;2023-06-10T12:45:49;4.60;;;1.63;;
16153;SDS011;8182;55.648;13.208;2023-06-10T12:48:21;6.60;;;1.53;;
16153;SDS011;8182;55.648;13.208;2023-06-10T12:50:51;5.37;;;1.53;;
16153;SDS011;8182;55.648;13.208;2023-06-10T12:53:24;2.60;;;1.53;;
16153;SDS011;8182;55.648;13.208;2023-06-10T12:55:51;4.80;;;1.77;;
16153;SDS011;8182;55.648;13.208;2023-06-10T12:58:19;2.53;;;1.20;;
16153;SDS011;8182;55.648;13.208;2023-06-10T13:00:47;2.70;;;1.47;;
16153;SDS011;8182;55.648;13.208;2023-06-10T13:03:15;5.23;;;1.63;;
16153;SDS011;8182;55.648;13.208;2023-06-10T13:05:47;7.97;;;1.60;;
16153;SDS011;8182;55.648;13.208;2023-06-10T13:08:15;5.67;;;1.37;;
16153;SDS011;8182;55.648;13.208;2023-06-10T13:10:44;4.67;;;1.40;;
16153;SDS011;8182;55.648;13.208;2023-06-10T13:13:11;2.87;;;1.40;;
16153;SDS011;8182;55.648;13.208;2023-06-10T13:15:39;8.47;;;1.80;;
16153;SDS011;8182;55.648;13.208;2023-06-10T13:18:08;5.73;;;1.57;;
16153;SDS011;8182;55.648;13.208;2023-06-10T13:20:34;2.43;;;1.47;;
16153;SDS011;8182;55.648;13.208;2023-06-10T13:23:02;2.43;;;1.30;;
16153;SDS011;8182;55.648;13.208;2023-06-10T13:25:33;4.30;;;1.47;;
16153;SDS011;8182;55.648;13.208;2023-06-10T13:28:03;2.33;;;1.10;;
16153;SDS011;8182;55.648;13.208;2023-06-10T13:30:30;3.80;;;1.40;;
16153;SDS011;8182;55.648;13.208;2023-06-10T13:32:58;4.60;;;1.47;;
16153;SDS011;8182;55.648;13.208;2023-06-10T13:35:25;5.53;;;1.63;;
16153;SDS011;8182;55.648;13.208;2023-06-10T13:37:52;8.90;;;1.60;;
16153;SDS011;8182;55.648;13.208;2023-06-10T13:40:20;5.43;;;1.67;;
16153;SDS011;8182;55.648;13.208;2023-06-10T13:42:48;8.63;;;1.80;;
16153;SDS011;8182;55.648;13.208;2023-06-10T13:45:17;4.10;;;1.30;;
16153;SDS011;8182;55.648;13.208;2023-06-10T13:47:54;5.83;;;1.43;;
16153;SDS011;8182;55.648;13.208;2023-06-10T13:50:21;4.63;;;1.30;;
16153;SDS011;8182;55.648;13.208;2023-06-10T13:52:51;5.07;;;1.30;;
16153;SDS011;8182;55.648;13.208;2023-06-10T13:55:18;5.73;;;1.20;;
16153;SDS011;8182;55.648;13.208;2023-06-10T13:57:48;7.60;;;1.90;;
16153;SDS011;8182;55.648;13.208;2023-06-10T14:00:32;2.83;;;1.30;;
16153;SDS011;8182;55.648;13.208;2023-06-10T14:03:00;5.73;;;1.63;;
16153;SDS011;8182;55.648;13.208;2023-06-10T14:05:28;5.77;;;1.20;;
16153;SDS011;8182;55.648;13.208;2023-06-10T14:07:55;7.13;;;1.37;;
16153;SDS011;8182;55.648;13.208;2023-06-10T14:10:22;6.43;;;1.47;;
16153;SDS011;8182;55.648;13.208;2023-06-10T14:12:50;2.60;;;1.30;;
16153;SDS011;8182;55.648;13.208;2023-06-10T14:15:20;7.23;;;1.50;;
16153;SDS011;8182;55.648;13.208;2023-06-10T14:17:49;4.73;;;1.27;;
16153;SDS011;8182;55.648;13.208;2023-06-10T14:20:16;1.97;;;1.30;;
16153;SDS011;8182;55.648;13.208;2023-06-10T14:22:47;6.40;;;1.10;;
16153;SDS011;8182;55.648;13.208;2023-06-10T14:25:14;4.33;;;1.30;;
16153;SDS011;8182;55.648;13.208;2023-06-10T14:27:45;6.57;;;0.90;;
16153;SDS011;8182;55.648;13.208;2023-06-10T14:30:12;7.47;;;1.30;;
16153;SDS011;8182;55.648;13.208;2023-06-10T14:32:41;4.60;;;1.10;;
16153;SDS011;8182;55.648;13.208;2023-06-10T14:35:09;3.63;;;1.00;;
16153;SDS011;8182;55.648;13.208;2023-06-10T14:37:37;4.87;;;1.17;;
16153;SDS011;8182;55.648;13.208;2023-06-10T14:40:05;6.57;;;1.53;;
16153;SDS011;8182;55.648;13.208;2023-06-10T14:42:34;2.43;;;0.87;;
16153;SDS011;8182;55.648;13.208;2023-06-10T14:45:02;2.43;;;1.20;;
16153;SDS011;8182;55.648;13.208;2023-06-10T14:47:30;3.57;;;1.30;;
16153;SDS011;8182;55.648;13.208;2023-06-10T14:49:57;3.70;;;1.00;;
16153;SDS011;8182;55.648;13.208;2023-06-10T14:52:26;6.00;;;1.33;;
16153;SDS011;8182;55.648;13.208;2023-06-10T14:54:53;4.03;;;0.87;;
16153;SDS011;8182;55.648;13.208;2023-06-10T14:57:23;3.87;;;1.10;;
16153;SDS011;8182;55.648;13.208;2023-06-10T14:59:52;3.00;;;0.87;;
16153;SDS011;8182;55.648;13.208;2023-06-10T15:02:21;3.37;;;1.10;;
16153;SDS011;8182;55.648;13.208;2023-06-10T15:04:48;4.00;;;1.10;;
16153;SDS011;8182;55.648;13.208;2023-06-10T15:07:15;2.27;;;1.07;;
16153;SDS011;8182;55.648;13.208;2023-06-10T15:09:44;2.47;;;1.07;;
16153;SDS011;8182;55.648;13.208;2023-06-10T15:12:12;5.03;;;1.20;;
16153;SDS011;8182;55.648;13.208;2023-06-10T15:14:39;3.80;;;0.93;;
16153;SDS011;8182;55.648;13.208;2023-06-10T15:17:06;3.50;;;1.20;;